Белгород

Карта отелей и гостиниц, располагающихся рядом с аэропортом Белгород :

Белгород Белгородская область 50° 38' 37.7412" N, 36° 35' 24.36" E
Код аэродрома ИКАО
UUOB
Код аэродрома RU
УУОБ
Координаты
N50.64382° E036.59010°
Превышение над уровнем моря
224
Основная полоса
11L/29R
Курс магнитный
109/289
Длина основной ВПП
2420
Ширина основной ВПП
60
Покрытие основной ВПП
Нетвёрдое (грунт)
Освещение ВПП
Нет
Тип: 
Аэродром
Класс аэродрома: 
Международный
Принадлежность: 
ГА
Статус: 
Действующий
Страна: 
Россия
Регион: 
Белгородская область
Дополнительная информация: 
ДПРМ:718-"AN/BX"; БПРМ:350-"A/B". Нкр.=(500)м.
Погода: 

Авиационная погода в Белгороде

Регион: 
Погода METAR: 
UUOB 221800Z 21002MPS CAVOK M04/M06 Q1012 R29/890338 NOSIG
Время наблюдения
2022-01-22T18:00:00Z
Температура C
-4.0
Точка росы
-6.0
Направление ветра
210
Скорость ветра (узлы)
4
Метео видимость
6.21
Облачность
CAVOK
Нижняя граница облачности (футы)
Явления погоды
Условия полета
VFR
Аэропорт подробнее: 
Прогноз TAF: 

Найти трансфер

С помощью этой формы Вы можете найти трансфер из аэропорта Белгород в город, аэропорт или вокзал:

Погода в аэропортах:

Авиационная погода в Талды-Коргане

Регион: 
Погода METAR: 
UAAT 221139Z 25002MPS 210V320 2700 BR FEW001 SCT200 M09/M12 Q1022 NOSIG RMK QBB050 QFE715/0953
Время наблюдения
2022-01-22T11:39:00Z
Температура C
-9.0
Точка росы
-12.0
Направление ветра
250
Скорость ветра (узлы)
4
Метео видимость
1.68
Облачность
FEW
SCT
Нижняя граница облачности (футы)
100
20000
Явления погоды
BR
Условия полета
IFR
Аэропорт подробнее: 
FEW – незначительная облачность; SCT – разбросанная отдельная облачность;
BR – дымка (видимость от 1 до 9 км);

Авиационная погода в аэропорту Имени Алексея Леонова

Регион: 
Погода METAR: 
UNEE 221800Z 00000MPS 2800 FU BR OVC004 M22/M24 Q1031 R23/920340 NOSIG RMK QFE750
Время наблюдения
2022-01-22T18:00:00Z
Температура C
-22.0
Точка росы
-24.0
Направление ветра
0
Скорость ветра (узлы)
0
Метео видимость
1.74
Облачность
OVC
Нижняя граница облачности (футы)
400
Явления погоды
FU BR
Условия полета
LIFR
Аэропорт подробнее: 
OVC – сплошная облачность;
BR – дымка (видимость от 1 до 9 км); FU – дым (видимость менее 10 км);

Авиационная погода в Якутске

Регион: 
Погода METAR: 
UEEE 221800Z 02002MPS 9999 -SN NSC M31/M34 Q1027 R23L/490150 NOSIG RMK QFE761
Время наблюдения
2022-01-22T18:00:00Z
Температура C
-31.0
Точка росы
-34.0
Направление ветра
20
Скорость ветра (узлы)
4
Метео видимость
6.21
Облачность
CLR
Нижняя граница облачности (футы)
Явления погоды
-SN
Условия полета
VFR
Аэропорт подробнее: 
CLR — нет облаков ниже 3000 м
-SN – слабый снег;

Авиационная погода в Алматы

Регион: 
Погода METAR: 
UAAA 221800Z 26001MPS 1600 R23R/P2000N R23L/P2000N BR SCT011 BKN100 M04/M05 Q1023 NOSIG
Время наблюдения
2022-01-22T18:00:00Z
Температура C
-4.0
Точка росы
-5.0
Направление ветра
260
Скорость ветра (узлы)
2
Метео видимость
0.99
Облачность
SCT
BKN
Нижняя граница облачности (футы)
1100
10000
Явления погоды
BR
Условия полета
LIFR
Аэропорт подробнее: 
SCT – разбросанная отдельная облачность; BKN – значительная (рассеянная, разорванная) облачность;
BR – дымка (видимость от 1 до 9 км);